Time;durP1;ratioP1;P1;durP2;ratioP2;P2;SDS_P1;SDS_P2;PMS_P1;PMS_P2;Temp;Humidity;BMP_temperature;BMP_pressure;BME280_temperature;BME280_humidity;BME280_pressure;Samples;Min_cycle;Max_cycle;Signal;HPM_P1;HPM_P2
2022/04/27 00:03:04;;;;;;;5.17;2.10;;;;;;;18.77;44.65;100948.19;5159098;27;866642;-63
2022/04/27 00:05:32;;;;;;;4.40;1.88;;;;;;;18.73;44.94;100945.13;5190557;27;20490;-63
2022/04/27 00:09:56;;;;;;;3.38;2.03;;;;;;;18.72;44.73;100940.78;5117988;27;20401;-62
2022/04/27 00:12:42;;;;;;;2.35;1.70;;;;;;;18.75;44.89;100948.41;5118272;27;20397;-63
2022/04/27 00:15:10;;;;;;;2.63;1.95;;;;;;;18.76;44.55;100958.09;5086941;28;20515;-63
2022/04/27 00:17:37;;;;;;;3.72;1.85;;;;;;;18.81;44.60;100960.97;5087171;28;20904;-63
2022/04/27 00:20:05;;;;;;;3.53;1.85;;;;;;;18.85;44.28;100961.34;5087174;28;20457;-63
2022/04/27 00:23:00;;;;;;;4.07;2.00;;;;;;;18.84;44.11;100955.19;5118244;27;20831;-63
2022/04/27 00:27:03;;;;;;;3.28;1.88;;;;;;;18.84;43.74;100962.41;5118267;27;20933;-62
2022/04/27 00:29:30;;;;;;;3.97;2.00;;;;;;;18.77;44.61;100965.13;5087263;28;20441;-62
2022/04/27 00:31:57;;;;;;;3.43;2.10;;;;;;;18.80;43.62;100961.16;5086883;28;20515;-63
2022/04/27 00:36:53;;;;;;;4.07;2.13;;;;;;;18.78;44.05;100963.25;5118122;27;20401;-62
2022/04/27 00:39:38;;;;;;;4.90;2.30;;;;;;;18.78;44.17;100961.41;5121712;27;20783;-62
2022/04/27 00:42:14;;;;;;;3.40;1.90;;;;;;;18.78;44.35;100960.56;5107687;28;20501;-63
2022/04/27 00:44:43;;;;;;;3.95;2.10;;;;;;;18.78;44.42;100960.56;5107481;28;20473;-62
2022/04/27 00:51:02;;;;;;;3.58;2.20;;;;;;;18.64;44.62;100955.28;5118206;27;20401;-60
2022/04/27 00:53:30;;;;;;;3.10;2.13;;;;;;;18.50;45.35;100949.19;5086890;28;20414;-60
2022/04/27 00:56:13;;;;;;;3.70;1.98;;;;;;;18.56;45.06;100957.41;5118275;27;20397;-63
2022/04/27 01:00:54;;;;;;;3.70;2.00;;;;;;;18.57;45.25;100956.41;5118266;27;20547;-62
2022/04/27 01:03:22;;;;;;;3.67;1.83;;;;;;;18.49;44.92;100952.09;5087315;28;20444;-62
2022/04/27 01:05:50;;;;;;;4.78;1.92;;;;;;;18.46;45.04;100955.22;5087343;28;20440;-62
2022/04/27 01:10:32;;;;;;;3.55;1.90;;;;;;;18.38;45.02;100961.66;5118290;27;20772;-62
2022/04/27 01:13:00;;;;;;;3.80;1.90;;;;;;;18.39;45.00;100959.81;5086952;28;20860;-63
2022/04/27 01:15:32;;;;;;;4.53;1.70;;;;;;;18.33;45.28;100956.94;5087170;28;20449;-62
2022/04/27 01:17:59;;;;;;;5.40;1.80;;;;;;;18.34;44.65;100955.88;5086794;28;20497;-62
2022/04/27 01:20:32;;;;;;;3.17;1.80;;;;;;;18.32;44.91;100949.09;5087060;28;20570;-62
2022/04/27 01:23:00;;;;;;;2.88;1.83;;;;;;;18.26;44.98;100948.09;5087017;28;20893;-63
2022/04/27 01:26:06;;;;;;;5.95;2.08;;;;;;;18.20;44.95;100948.94;5118214;27;20779;-62
2022/04/27 01:28:35;;;;;;;2.38;1.77;;;;;;;18.21;45.32;100955.16;5087210;28;20476;-62
2022/04/27 01:33:34;;;;;;;4.30;2.00;;;;;;;18.22;45.82;100954.09;5118320;27;20405;-64
2022/04/27 01:36:01;;;;;;;4.35;2.00;;;;;;;18.21;45.63;100953.28;5086897;28;20406;-63
2022/04/27 01:38:33;;;;;;;2.90;1.73;;;;;;;18.21;45.55;100955.97;5086859;28;20410;-63
2022/04/27 01:41:02;;;;;;;3.50;2.13;;;;;;;18.24;45.24;100955.56;5087125;28;20412;-63
2022/04/27 01:43:29;;;;;;;3.40;2.13;;;;;;;18.19;45.37;100952.69;5087071;28;20406;-64
2022/04/27 01:45:57;;;;;;;5.32;2.45;;;;;;;18.17;45.29;100953.91;5086767;28;20891;-63
2022/04/27 01:48:24;;;;;;;3.75;2.30;;;;;;;18.16;45.65;100955.78;5086717;28;20811;-63
2022/04/27 01:56:42;;;;;;;3.65;2.25;;;;;;;17.87;46.35;100951.81;5118339;27;20934;-62
2022/04/27 02:03:18;;;;;;;4.20;2.03;;;;;;;17.69;47.00;100957.81;5118528;27;20409;-61
2022/04/27 02:07:54;;;;;;;4.07;2.13;;;;;;;17.66;46.96;100958.22;5118242;27;20413;-63
2022/04/27 02:10:21;;;;;;;3.13;2.03;;;;;;;17.63;46.97;100950.59;5087247;28;20420;-62
2022/04/27 02:13:33;;;;;;;3.45;2.00;;;;;;;17.58;46.70;100954.75;5118269;27;20409;-62
2022/04/27 02:16:01;;;;;;;3.27;2.00;;;;;;;17.59;46.67;100950.19;5086906;28;20808;-62
2022/04/27 02:18:28;;;;;;;4.97;2.03;;;;;;;17.54;47.15;100964.25;5086880;28;20402;-63
2022/04/27 02:23:26;;;;;;;4.05;2.22;;;;;;;17.45;47.54;100970.88;5118282;27;20408;-63
2022/04/27 02:29:43;;;;;;;2.58;2.00;;;;;;;17.32;48.15;100971.72;5118220;27;20783;-63
2022/04/27 02:32:10;;;;;;;3.95;2.03;;;;;;;17.28;47.94;100966.97;5087231;28;20419;-63
2022/04/27 02:35:50;;;;;;;4.68;2.17;;;;;;;17.31;48.12;100977.28;5118321;27;20405;-64
2022/04/27 02:40:33;;;;;;;4.10;2.28;;;;;;;17.21;48.42;100980.38;5118316;27;20409;-63
2022/04/27 02:43:00;;;;;;;3.85;2.30;;;;;;;17.19;48.35;100983.25;5086900;28;20904;-62
2022/04/27 02:45:27;;;;;;;3.38;2.20;;;;;;;17.18;48.46;100980.81;5087136;28;20410;-63
2022/04/27 02:53:52;;;;;;;5.35;1.90;;;;;;;16.94;48.76;100992.94;5086874;28;20408;-63
2022/04/27 02:56:19;;;;;;;4.27;2.10;;;;;;;16.89;48.89;100996.25;5086899;28;20489;-63
2022/04/27 03:02:34;;;;;;;2.80;1.58;;;;;;;16.80;49.12;101000.94;5118356;27;20409;-63
2022/04/27 03:05:01;;;;;;;3.17;1.60;;;;;;;16.74;49.09;100998.25;5086924;28;20533;-63
2022/04/27 03:07:29;;;;;;;2.77;1.57;;;;;;;16.74;49.04;101011.63;5086849;28;20402;-63
2022/04/27 03:11:16;;;;;;;4.47;1.88;;;;;;;16.68;49.02;101009.78;5118293;27;20409;-63
2022/04/27 03:13:43;;;;;;;4.53;2.00;;;;;;;16.62;49.16;101014.91;5086891;28;20414;-63
2022/04/27 03:16:10;;;;;;;5.63;1.90;;;;;;;16.61;49.52;101025.81;5087131;28;20441;-63
2022/04/27 03:18:37;;;;;;;7.47;1.92;;;;;;;16.51;49.67;101030.72;5087195;28;20410;-63
2022/04/27 03:21:05;;;;;;;4.15;1.95;;;;;;;16.44;50.01;101036.88;5087117;28;20410;-63
2022/04/27 03:23:31;;;;;;;3.33;1.90;;;;;;;16.44;49.95;101044.09;5086803;28;20416;-63
2022/04/27 03:27:30;;;;;;;3.15;1.98;;;;;;;16.36;50.01;101058.44;5118293;27;20791;-64
2022/04/27 03:29:57;;;;;;;5.05;2.10;;;;;;;16.42;49.84;101062.16;5087225;28;20410;-63
2022/04/27 03:32:24;;;;;;;4.32;2.10;;;;;;;16.36;49.83;101047.75;5086877;28;20418;-63
2022/04/27 03:34:51;;;;;;;6.75;2.22;;;;;;;16.39;49.67;101047.34;5086837;28;20852;-63
2022/04/27 03:37:18;;;;;;;7.05;2.25;;;;;;;16.19;50.02;101051.81;5086804;28;20406;-62
2022/04/27 03:39:45;;;;;;;2.90;1.90;;;;;;;16.28;49.75;101049.75;5087070;28;20410;-62
2022/04/27 03:42:12;;;;;;;6.85;2.30;;;;;;;16.50;49.16;101045.97;5087092;28;20414;-63
2022/04/27 03:44:40;;;;;;;9.65;2.60;;;;;;;16.53;49.33;101052.75;5086642;28;20410;-63
2022/04/27 03:47:07;;;;;;;4.00;2.10;;;;;;;16.70;48.65;101053.22;5086507;28;20950;-62
2022/04/27 03:49:34;;;;;;;10.13;2.80;;;;;;;16.68;48.83;101055.28;5086558;28;20468;-63
2022/04/27 03:52:01;;;;;;;8.32;2.40;;;;;;;16.79;48.46;101058.19;5086957;28;20437;-63
2022/04/27 03:55:44;;;;;;;5.50;2.55;;;;;;;16.90;48.05;101064.81;5118364;27;20555;-63
2022/04/27 03:58:11;;;;;;;6.20;2.45;;;;;;;16.96;47.87;101071.22;5087256;28;20435;-62
2022/04/27 04:01:24;;;;;;;3.60;2.05;;;;;;;17.05;47.76;101078.06;5118370;27;20405;-62
2022/04/27 04:03:51;;;;;;;6.00;2.30;;;;;;;17.23;47.73;101076.59;5087113;28;21645;-62
2022/04/27 04:06:19;;;;;;;7.05;2.80;;;;;;;17.46;47.41;101076.22;5086860;28;20447;-63
2022/04/27 04:10:29;;;;;;;9.30;3.20;;;;;;;17.77;46.86;101076.41;5159470;27;853834;-63
2022/04/27 04:12:56;;;;;;;19.40;4.25;;;;;;;18.02;46.29;101075.72;5190242;27;20590;-63
2022/04/27 04:15:23;;;;;;;19.48;3.88;;;;;;;18.34;45.68;101073.97;5190423;27;20398;-64
2022/04/27 04:17:50;;;;;;;8.68;2.80;;;;;;;18.62;45.13;101072.84;5190028;27;20899;-63
2022/04/27 04:20:18;;;;;;;5.18;2.33;;;;;;;19.07;43.76;101080.84;5190428;27;20412;-63
2022/04/27 04:31:18;;;;;;;4.63;2.50;;;;;;;20.05;42.19;101087.44;5118339;27;20404;-62
2022/04/27 04:33:45;;;;;;;5.32;2.30;;;;;;;20.43;41.67;101094.47;5087119;28;20762;-62
2022/04/27 04:36:12;;;;;;;6.00;2.50;;;;;;;20.75;41.13;101086.22;5086802;28;20425;-61
2022/04/27 04:38:40;;;;;;;6.20;2.88;;;;;;;21.06;40.62;101092.41;5087078;28;20487;-61
2022/04/27 04:41:06;;;;;;;9.50;3.00;;;;;;;21.56;39.44;101097.44;5086698;28;20552;-62
2022/04/27 04:43:34;;;;;;;8.55;3.60;;;;;;;21.86;39.09;101093.81;5087076;28;20416;-62
2022/04/27 04:46:01;;;;;;;7.57;3.40;;;;;;;22.32;37.74;101097.50;5086583;28;20933;-62
2022/04/27 04:48:29;;;;;;;6.20;2.95;;;;;;;22.65;38.01;101098.72;5086501;28;20410;-61
2022/04/27 04:52:07;;;;;;;6.47;2.70;;;;;;;23.40;37.00;101096.78;5118037;27;20417;-61
2022/04/27 04:54:35;;;;;;;6.30;3.00;;;;;;;23.71;36.04;101107.25;5086890;28;21102;-62
2022/04/27 04:57:02;;;;;;;6.60;2.90;;;;;;;24.15;34.83;101116.31;5086699;28;20414;-61
2022/04/27 04:59:29;;;;;;;9.30;3.40;;;;;;;24.75;34.43;101108.34;5086889;28;20783;-63
2022/04/27 05:01:56;;;;;;;5.07;2.90;;;;;;;25.03;34.47;101112.72;5087030;28;20414;-62
2022/04/27 05:04:23;;;;;;;4.07;2.83;;;;;;;25.34;34.26;101108.38;5086690;28;20903;-63
2022/04/27 05:06:50;;;;;;;4.78;3.10;;;;;;;25.75;33.55;101113.31;5087023;28;20418;-63
2022/04/27 05:09:18;;;;;;;7.47;3.00;;;;;;;26.31;31.91;101115.53;5086576;28;20406;-63
2022/04/27 05:11:45;;;;;;;6.38;3.13;;;;;;;26.51;31.20;101103.91;5086806;28;20437;-64
2022/04/27 05:14:12;;;;;;;11.17;4.37;;;;;;;27.03;30.74;101102.13;5086461;28;20448;-63
2022/04/27 05:16:39;;;;;;;8.90;4.07;;;;;;;27.41;30.18;101092.63;5086645;28;20420;-63
2022/04/27 05:19:06;;;;;;;18.25;9.30;;;;;;;27.94;28.93;101091.44;5086602;28;20421;-63
2022/04/27 05:21:33;;;;;;;14.93;7.30;;;;;;;28.38;28.37;101093.44;5086279;28;20787;-63
2022/04/27 05:24:00;;;;;;;10.68;4.75;;;;;;;28.65;27.12;101087.59;5086533;28;20406;-64
2022/04/27 05:26:28;;;;;;;7.93;4.28;;;;;;;29.06;26.72;101094.66;5086663;28;20851;-64
2022/04/27 05:31:55;;;;;;;11.48;6.15;;;;;;;30.04;25.29;101095.38;5086191;28;20437;-63
2022/04/27 05:34:22;;;;;;;6.03;3.45;;;;;;;30.36;24.78;101102.13;5086355;28;20417;-64
2022/04/27 05:36:50;;;;;;;6.47;3.30;;;;;;;30.64;24.08;101100.34;5086315;28;20456;-61
2022/04/27 05:39:18;;;;;;;5.10;2.70;;;;;;;30.94;23.31;101109.25;5086383;28;20422;-64
2022/04/27 05:41:47;;;;;;;7.83;3.20;;;;;;;31.16;23.05;101102.31;5086217;28;20421;-63
2022/04/27 05:44:13;;;;;;;20.30;8.40;;;;;;;31.52;22.39;101118.16;5085943;28;20410;-63
2022/04/27 05:46:40;;;;;;;5.15;3.25;;;;;;;31.86;22.23;101103.28;5085953;28;20416;-64
2022/04/27 05:49:07;;;;;;;6.90;3.22;;;;;;;32.39;21.98;101108.22;5086175;28;20433;-65
2022/04/27 05:51:34;;;;;;;9.25;3.72;;;;;;;32.65;21.51;101118.66;5086077;28;20430;-64
2022/04/27 05:54:01;;;;;;;7.97;4.18;;;;;;;32.90;21.25;101115.31;5085731;28;20934;-64
2022/04/27 05:56:28;;;;;;;5.75;2.45;;;;;;;33.14;20.81;101114.22;5086065;28;20413;-64
2022/04/27 05:58:56;;;;;;;5.43;2.55;;;;;;;33.24;20.15;101115.88;5085671;28;20425;-64
2022/04/27 06:01:24;;;;;;;8.60;2.60;;;;;;;33.23;20.52;101115.06;5083845;28;20436;-64
2022/04/27 06:03:53;;;;;;;8.98;2.83;;;;;;;33.27;20.78;101118.81;5072197;28;20414;-63
2022/04/27 06:06:20;;;;;;;6.00;2.58;;;;;;;33.51;20.62;101123.13;5072100;28;20442;-62
2022/04/27 06:08:47;;;;;;;5.43;2.20;;;;;;;33.46;20.04;101120.56;5071987;28;20414;-64
2022/04/27 06:11:15;;;;;;;4.95;2.45;;;;;;;33.75;19.74;101122.00;5072218;28;20427;-63
2022/04/27 06:13:42;;;;;;;3.17;2.10;;;;;;;33.78;19.54;101124.09;5072267;28;20411;-62
2022/04/27 06:16:10;;;;;;;5.78;2.28;;;;;;;33.91;19.48;101125.94;5071905;28;20871;-62
2022/04/27 06:18:39;;;;;;;2.83;2.10;;;;;;;34.02;19.35;101123.72;5072092;28;20407;-62
2022/04/27 06:21:06;;;;;;;5.30;2.50;;;;;;;33.93;19.74;101131.94;5072196;28;20411;-61
2022/04/27 06:23:33;;;;;;;5.38;2.40;;;;;;;34.12;19.31;101125.34;5071859;28;20421;-63
2022/04/27 06:26:00;;;;;;;3.83;2.22;;;;;;;34.40;19.36;101123.97;5071731;28;20912;-63
2022/04/27 06:28:27;;;;;;;5.22;3.25;;;;;;;34.67;19.20;101131.13;5072018;28;20417;-63
2022/04/27 06:30:54;;;;;;;5.25;2.78;;;;;;;35.17;18.39;101142.81;5071563;28;20438;-62
2022/04/27 06:33:22;;;;;;;6.78;2.58;;;;;;;35.55;18.05;101131.06;5071636;28;20888;-63
2022/04/27 06:35:50;;;;;;;3.70;2.20;;;;;;;35.81;17.42;101142.00;5071886;28;20407;-62
2022/04/27 06:38:17;;;;;;;5.20;2.30;;;;;;;35.56;17.78;101130.69;5071834;28;20411;-63
2022/04/27 06:40:44;;;;;;;4.13;1.70;;;;;;;35.19;18.11;101140.53;5071677;28;20406;-62
2022/04/27 06:43:11;;;;;;;2.63;1.80;;;;;;;35.21;17.96;101136.31;5071312;28;20903;-62
2022/04/27 06:45:38;;;;;;;4.78;2.05;;;;;;;35.18;18.23;101131.44;5071358;28;20417;-62
2022/04/27 06:48:06;;;;;;;3.70;2.20;;;;;;;35.12;18.06;101132.75;5071244;28;20411;-63
2022/04/27 06:50:34;;;;;;;4.82;2.65;;;;;;;35.37;18.24;101136.63;5071243;28;20434;-63
2022/04/27 06:53:01;;;;;;;6.00;3.10;;;;;;;35.28;18.37;101135.03;5071577;28;20411;-63
2022/04/27 06:55:28;;;;;;;4.93;2.47;;;;;;;35.14;18.14;101132.44;5071094;28;20413;-62
2022/04/27 06:57:55;;;;;;;7.15;2.30;;;;;;;35.17;18.38;101129.81;5071378;28;20415;-62
2022/04/27 07:00:25;;;;;;;3.90;2.20;;;;;;;35.12;18.27;101127.25;5070963;28;20481;-62
2022/04/27 07:02:53;;;;;;;4.07;2.03;;;;;;;35.27;18.34;101138.91;5071241;28;20418;-62
2022/04/27 07:05:20;;;;;;;3.97;2.20;;;;;;;35.10;18.48;101134.22;5070908;28;20934;-62
2022/04/27 07:07:49;;;;;;;6.13;2.03;;;;;;;35.03;18.44;101131.97;5070792;28;20472;-63
2022/04/27 07:10:17;;;;;;;10.05;2.05;;;;;;;34.94;18.52;101133.91;5070832;28;20494;-62
2022/04/27 07:12:44;;;;;;;5.55;2.08;;;;;;;34.97;18.77;101130.50;5071127;28;20430;-63
2022/04/27 07:15:11;;;;;;;3.42;1.75;;;;;;;34.49;19.07;101131.44;5070013;28;20415;-63
2022/04/27 07:17:38;;;;;;;4.38;1.83;;;;;;;33.98;19.55;101134.56;5070763;28;20406;-62
2022/04/27 07:20:06;;;;;;;2.78;1.52;;;;;;;33.62;20.19;101134.69;5070630;28;20418;-63
2022/04/27 07:22:33;;;;;;;3.75;2.10;;;;;;;33.44;20.18;101133.78;5070612;28;20466;-63
2022/04/27 07:25:01;;;;;;;3.33;2.50;;;;;;;32.31;21.21;101142.69;5070488;28;20410;-63
2022/04/27 07:27:31;;;;;;;5.22;2.08;;;;;;;30.50;23.38;101148.69;5070783;28;20411;-62
2022/04/27 07:29:58;;;;;;;3.58;2.20;;;;;;;29.71;24.52;101155.28;5070985;28;20406;-63
2022/04/27 07:32:25;;;;;;;4.78;2.00;;;;;;;28.84;25.39;101155.94;5070493;28;20430;-63
2022/04/27 07:34:52;;;;;;;3.50;2.17;;;;;;;28.70;26.20;101152.19;5070249;28;20801;-62
2022/04/27 07:37:19;;;;;;;5.85;2.00;;;;;;;28.51;26.41;101158.28;5070605;28;20425;-63
2022/04/27 07:39:46;;;;;;;5.03;2.10;;;;;;;28.28;26.41;101157.00;5070749;28;20415;-63
2022/04/27 07:42:15;;;;;;;4.38;2.10;;;;;;;27.35;27.78;101160.94;5070154;28;20410;-63
2022/04/27 07:44:43;;;;;;;4.43;1.98;;;;;;;26.24;29.52;101167.38;5070160;28;20406;-62
2022/04/27 07:47:13;;;;;;;3.45;2.00;;;;;;;25.85;30.42;101173.09;5070335;28;20477;-62
2022/04/27 07:49:40;;;;;;;2.55;1.70;;;;;;;25.95;30.55;101164.25;5070180;28;20501;-62
2022/04/27 07:52:07;;;;;;;5.22;2.00;;;;;;;26.14;29.94;101164.59;5070007;28;20442;-64
2022/04/27 07:54:34;;;;;;;3.80;2.03;;;;;;;25.92;30.26;101162.81;5069823;28;20725;-64
2022/04/27 07:57:01;;;;;;;2.28;2.08;;;;;;;25.09;31.89;101171.34;5070143;28;20414;-64
2022/04/27 07:59:30;;;;;;;4.22;2.40;;;;;;;24.96;32.23;101171.78;5069914;28;20418;-64
2022/04/27 08:03:48;;;;;;;5.80;2.20;;;;;;;24.61;32.90;101171.13;5118041;27;20843;-61
2022/04/27 08:06:15;;;;;;;2.75;2.15;;;;;;;24.20;33.52;101167.84;5087140;28;20444;-61
2022/04/27 08:08:42;;;;;;;3.60;2.28;;;;;;;24.44;33.44;101181.16;5086886;28;20410;-61
2022/04/27 08:11:10;;;;;;;2.70;2.10;;;;;;;23.79;34.35;101185.34;5087022;28;20412;-63
2022/04/27 08:13:37;;;;;;;3.08;2.40;;;;;;;23.62;34.16;101185.34;5086669;28;20418;-62
2022/04/27 08:16:04;;;;;;;5.05;2.63;;;;;;;23.44;34.50;101179.13;5086715;28;20406;-61
2022/04/27 08:18:34;;;;;;;4.28;2.75;;;;;;;23.50;34.67;101179.19;5086610;28;20791;-62
2022/04/27 08:21:15;;;;;;;3.28;2.63;;;;;;;23.47;35.18;101175.91;5086885;28;20429;-61
2022/04/27 08:23:43;;;;;;;5.32;3.10;;;;;;;23.05;36.90;101178.97;5086675;28;20429;-62
2022/04/27 08:26:11;;;;;;;6.40;3.30;;;;;;;23.04;36.62;101177.31;5086545;28;20414;-61
2022/04/27 08:28:39;;;;;;;5.50;3.23;;;;;;;23.00;36.97;101175.31;5086819;28;20410;-61
2022/04/27 08:31:07;;;;;;;5.60;3.60;;;;;;;22.73;37.00;101172.34;5086325;28;20420;-62
2022/04/27 08:33:35;;;;;;;5.03;3.08;;;;;;;23.07;36.48;101176.00;5086299;28;20733;-61
2022/04/27 08:36:04;;;;;;;5.03;3.13;;;;;;;23.27;36.22;101165.56;5086648;28;20457;-62
2022/04/27 08:38:34;;;;;;;3.20;2.70;;;;;;;23.74;35.18;101166.31;5086531;28;20402;-62
2022/04/27 08:41:01;;;;;;;4.00;3.28;;;;;;;23.47;35.66;101167.78;5086215;28;20414;-62
2022/04/27 08:43:28;;;;;;;7.40;3.80;;;;;;;23.76;35.41;101153.34;5086064;28;20974;-62
2022/04/27 08:45:55;;;;;;;5.93;3.30;;;;;;;23.92;34.44;101162.56;5086143;28;20411;-62
2022/04/27 08:48:22;;;;;;;4.65;3.60;;;;;;;23.87;35.14;101157.88;5086069;28;20417;-62
2022/04/27 08:50:50;;;;;;;6.03;3.53;;;;;;;24.13;35.10;101159.09;5085958;28;20795;-63
2022/04/27 08:53:18;;;;;;;6.40;3.80;;;;;;;24.28;35.20;101153.03;5086023;28;20411;-62
2022/04/27 08:55:45;;;;;;;6.65;3.70;;;;;;;24.15;35.57;101150.72;5086197;28;20398;-63
2022/04/27 08:58:14;;;;;;;5.13;3.90;;;;;;;24.73;34.70;101146.56;5086179;28;20493;-62
2022/04/27 09:00:42;;;;;;;6.55;4.38;;;;;;;24.17;36.04;101151.28;5086148;28;20413;-63
2022/04/27 09:03:25;;;;;;;7.05;4.20;;;;;;;23.92;36.67;101144.41;5085891;28;20945;-62
2022/04/27 09:05:54;;;;;;;5.65;4.30;;;;;;;23.94;36.51;101144.19;5085694;28;20415;-63
2022/04/27 09:08:25;;;;;;;6.47;3.80;;;;;;;23.96;36.67;101147.44;5086080;28;20402;-62
2022/04/27 09:11:11;;;;;;;8.63;3.97;;;;;;;24.11;36.63;101152.25;5085677;28;20787;-62
2022/04/27 09:13:38;;;;;;;4.82;4.15;;;;;;;23.89;36.76;101139.50;5080832;28;20433;-62
2022/04/27 09:16:06;;;;;;;7.25;4.03;;;;;;;24.16;36.28;101142.31;5072356;28;20410;-62
2022/04/27 09:21:31;;;;;;;5.68;3.33;;;;;;;24.79;36.05;101123.88;5072057;28;20414;-62
2022/04/27 09:24:04;;;;;;;5.85;3.65;;;;;;;24.98;35.52;101128.94;5071905;28;20805;-64
2022/04/27 09:26:31;;;;;;;6.30;3.90;;;;;;;24.68;36.02;101132.94;5071848;28;20920;-62
2022/04/27 09:28:59;;;;;;;5.55;3.55;;;;;;;24.45;36.24;101125.88;5072231;28;20415;-62
2022/04/27 09:32:18;;;;;;;4.75;2.92;;;;;;;24.39;36.23;101126.91;5118027;27;20756;-61
2022/04/27 09:34:46;;;;;;;3.88;3.13;;;;;;;24.56;35.93;101119.56;5086888;28;20835;-61
2022/04/27 09:37:16;;;;;;;4.95;3.10;;;;;;;24.54;36.39;101113.56;5086816;28;20907;-61
2022/04/27 09:39:43;;;;;;;6.05;2.97;;;;;;;24.86;36.04;101117.41;5087067;28;20813;-62
2022/04/27 09:42:10;;;;;;;4.93;2.92;;;;;;;24.63;36.51;101111.19;5086778;28;20425;-62
2022/04/27 09:44:39;;;;;;;4.97;2.70;;;;;;;24.40;37.38;101109.56;5086696;28;20406;-62
2022/04/27 09:47:07;;;;;;;5.45;2.72;;;;;;;24.84;36.05;101117.66;5086604;28;20429;-61
2022/04/27 09:49:36;;;;;;;6.20;2.90;;;;;;;24.90;35.56;101110.41;5087033;28;20454;-61
2022/04/27 09:52:05;;;;;;;6.83;2.60;;;;;;;24.73;36.13;101105.91;5086635;28;20426;-62
2022/04/27 09:54:36;;;;;;;4.35;2.33;;;;;;;24.54;35.69;101108.16;5086959;28;20445;-62
2022/04/27 09:57:04;;;;;;;4.80;2.30;;;;;;;24.77;35.42;101098.88;5086755;28;21520;-62
2022/04/27 09:59:34;;;;;;;5.00;2.45;;;;;;;25.14;34.53;101091.94;5086299;28;20410;-62
2022/04/27 10:02:05;;;;;;;5.55;2.55;;;;;;;25.16;34.98;101097.91;5086636;28;20421;-62
2022/04/27 10:04:32;;;;;;;6.97;2.30;;;;;;;25.17;34.46;101089.50;5086231;28;20414;-62
2022/04/27 10:07:03;;;;;;;3.83;2.28;;;;;;;25.30;34.10;101087.44;5086226;28;20419;-62
2022/04/27 10:09:30;;;;;;;5.47;2.95;;;;;;;25.47;33.75;101090.03;5086107;28;20900;-62
2022/04/27 10:13:26;;;;;;;4.65;2.05;;;;;;;25.34;33.10;101081.25;5118294;27;20406;-63
2022/04/27 10:15:54;;;;;;;2.63;1.50;;;;;;;24.85;33.09;101075.09;5087185;28;20428;-63
2022/04/27 10:18:21;;;;;;;4.15;1.70;;;;;;;24.64;33.58;101084.94;5086844;28;20501;-63
2022/04/27 10:20:51;;;;;;;3.05;1.50;;;;;;;24.45;33.29;101076.28;5087193;28;20414;-63
2022/04/27 10:25:09;;;;;;;2.20;1.40;;;;;;;24.83;32.45;101078.09;5118235;27;20923;-63
2022/04/27 10:27:37;;;;;;;2.53;1.10;;;;;;;24.83;31.66;101060.97;5086949;28;20796;-63
2022/04/27 10:30:07;;;;;;;2.08;0.95;;;;;;;24.75;30.58;101064.97;5087173;28;20414;-63
2022/04/27 10:32:36;;;;;;;4.00;1.30;;;;;;;24.63;31.07;101067.84;5086731;28;20802;-63
2022/04/27 10:35:27;;;;;;;3.03;1.15;;;;;;;24.82;30.90;101062.88;5087134;28;20410;-63
2022/04/27 10:37:57;;;;;;;3.53;1.30;;;;;;;24.85;31.78;101051.53;5086857;28;20449;-64
2022/04/27 10:40:34;;;;;;;2.92;1.20;;;;;;;25.01;31.33;101047.03;5086645;28;20418;-63
2022/04/27 10:43:26;;;;;;;3.00;1.10;;;;;;;24.75;31.01;101052.22;5086558;28;20455;-63
2022/04/27 10:47:48;;;;;;;2.40;1.30;;;;;;;24.65;31.96;101045.91;5118293;27;20412;-63
2022/04/27 10:52:01;;;;;;;3.42;1.10;;;;;;;24.75;31.30;101040.59;5159954;27;20402;-62
2022/04/27 10:54:31;;;;;;;2.33;1.00;;;;;;;25.09;31.21;101032.19;5127547;28;20426;-62
2022/04/27 10:57:30;;;;;;;4.72;1.27;;;;;;;24.90;32.23;101038.03;5127627;28;20439;-62
2022/04/27 10:59:59;;;;;;;2.80;1.30;;;;;;;24.78;32.15;101027.34;5117401;27;20403;-62
2022/04/27 11:02:33;;;;;;;2.30;1.17;;;;;;;24.91;32.24;101036.94;5127536;28;20911;-62
2022/04/27 11:05:00;;;;;;;3.58;1.52;;;;;;;25.06;32.28;101030.81;5127797;28;20402;-62
2022/04/27 11:07:35;;;;;;;2.53;1.10;;;;;;;25.02;31.63;101047.88;5127730;28;20407;-62
2022/04/27 11:10:14;;;;;;;3.60;1.20;;;;;;;24.87;32.02;101018.75;5127250;28;20422;-62
2022/04/27 11:12:44;;;;;;;2.03;1.00;;;;;;;24.90;31.77;101021.75;5127798;28;20407;-63
2022/04/27 11:15:12;;;;;;;2.20;1.00;;;;;;;25.11;31.59;101011.84;5127991;28;20410;-63
2022/04/27 11:17:40;;;;;;;1.97;1.10;;;;;;;25.20;30.64;101017.63;5127628;27;20413;-62
2022/04/27 11:20:23;;;;;;;2.75;1.05;;;;;;;25.09;31.16;101007.78;5127446;28;20476;-62
2022/04/27 11:22:51;;;;;;;1.90;1.00;;;;;;;24.94;31.28;101003.88;5127345;28;20407;-62
2022/04/27 11:25:27;;;;;;;2.93;1.00;;;;;;;24.92;31.47;101010.63;5127421;28;20399;-62
2022/04/27 11:27:54;;;;;;;2.80;1.17;;;;;;;25.17;30.43;101010.00;5127369;28;20419;-63
2022/04/27 11:30:21;;;;;;;3.05;0.90;;;;;;;25.18;29.37;101004.31;5127201;28;20430;-63
2022/04/27 11:32:48;;;;;;;2.83;0.85;;;;;;;25.33;27.90;101003.63;5126861;27;20413;-63
2022/04/27 11:35:16;;;;;;;2.03;0.90;;;;;;;25.25;29.64;101009.56;5126847;28;20904;-62
2022/04/27 11:37:43;;;;;;;1.60;1.00;;;;;;;25.19;30.04;100999.69;5126725;28;20413;-63
2022/04/27 11:40:16;;;;;;;2.63;1.00;;;;;;;25.26;30.23;100996.78;5127057;28;20421;-63
2022/04/27 11:42:44;;;;;;;2.92;1.20;;;;;;;25.03;30.82;101006.09;5126816;28;20411;-63
2022/04/27 11:45:13;;;;;;;4.53;1.33;;;;;;;25.11;30.10;100994.78;5126485;28;20403;-63
2022/04/27 11:47:40;;;;;;;3.55;1.10;;;;;;;25.15;30.18;100993.97;5126675;28;20414;-63
2022/04/27 11:50:08;;;;;;;3.05;1.20;;;;;;;25.34;29.90;100989.00;5126842;28;20423;-64
2022/04/27 11:53:08;;;;;;;2.97;1.10;;;;;;;25.40;29.87;100970.03;5127049;27;20754;-63
2022/04/27 11:55:36;;;;;;;2.30;0.90;;;;;;;25.21;29.77;100977.72;5127763;28;20409;-64
2022/04/27 11:58:05;;;;;;;2.15;0.90;;;;;;;25.20;30.71;100971.50;5127641;28;20475;-63
2022/04/27 12:00:34;;;;;;;3.90;0.90;;;;;;;25.09;30.69;100969.81;5127612;28;20421;-63
2022/04/27 12:03:03;;;;;;;3.70;1.00;;;;;;;25.32;30.52;100966.72;5127953;27;20407;-63
2022/04/27 12:05:32;;;;;;;1.55;0.80;;;;;;;25.24;30.49;100963.66;5127437;28;20792;-63
2022/04/27 12:08:01;;;;;;;1.80;0.80;;;;;;;25.10;30.51;100957.88;5127463;28;20399;-64
2022/04/27 12:10:30;;;;;;;3.35;0.90;;;;;;;25.25;30.19;100949.06;5127400;28;20411;-63
2022/04/27 12:13:00;;;;;;;2.63;0.80;;;;;;;25.07;29.72;100948.38;5127264;28;20433;-64
2022/04/27 12:15:27;;;;;;;2.65;0.80;;;;;;;25.31;29.92;100946.09;5127336;28;20868;-63
2022/04/27 12:17:56;;;;;;;1.83;0.80;;;;;;;25.21;30.00;100945.19;5127552;28;20417;-64
2022/04/27 12:20:25;;;;;;;3.20;0.90;;;;;;;25.29;29.68;100934.69;5127577;27;20411;-63
2022/04/27 12:22:53;;;;;;;3.45;0.80;;;;;;;25.45;29.52;100932.88;5127549;28;20407;-63
2022/04/27 12:25:21;;;;;;;1.80;0.80;;;;;;;25.37;29.66;100936.91;5127468;27;20403;-63
2022/04/27 12:27:52;;;;;;;3.30;0.90;;;;;;;25.41;29.78;100936.38;5127455;28;20416;-64
2022/04/27 12:30:21;;;;;;;3.17;1.02;;;;;;;25.52;29.48;100935.34;5127039;28;20919;-63
2022/04/27 12:32:49;;;;;;;3.92;0.80;;;;;;;25.51;29.39;100936.41;5126862;28;20924;-63
2022/04/27 12:38:11;;;;;;;1.60;0.80;;;;;;;25.38;29.64;100924.16;5127018;28;20406;-63
2022/04/27 12:40:40;;;;;;;2.20;1.00;;;;;;;25.45;29.10;100932.06;5127083;28;20409;-63
2022/04/27 12:43:09;;;;;;;3.08;1.17;;;;;;;25.49;29.62;100919.59;5126751;28;20414;-63
2022/04/27 12:45:37;;;;;;;2.78;0.80;;;;;;;25.39;29.89;100925.78;5126749;28;20403;-63
2022/04/27 12:48:05;;;;;;;3.42;1.00;;;;;;;25.40;30.01;100924.69;5126639;27;20934;-64
2022/04/27 12:50:33;;;;;;;1.48;0.85;;;;;;;25.51;29.54;100920.13;5126847;28;20584;-64
2022/04/27 12:53:07;;;;;;;2.05;1.02;;;;;;;25.68;29.51;100918.03;5126298;27;20433;-63
2022/04/27 12:55:35;;;;;;;2.08;1.00;;;;;;;25.68;29.29;100909.91;5126482;28;20414;-62
2022/04/27 12:58:02;;;;;;;3.03;0.90;;;;;;;25.78;29.10;100908.28;5126474;28;20410;-62